sensor_id;sensor_type;location;lat;lon;timestamp;pressure;altitude;pressure_sealevel;temperature;humidity
35011;BME280;21205;37.378;127.098;2023-03-16T00:02:25;101889.75;;;21.50;22.10
35011;BME280;21205;37.378;127.098;2023-03-16T00:04:55;101888.91;;;21.58;22.21
35011;BME280;21205;37.378;127.098;2023-03-16T00:07:24;101884.78;;;21.55;21.97
35011;BME280;21205;37.378;127.098;2023-03-16T00:09:54;101884.97;;;21.50;22.20
35011;BME280;21205;37.378;127.098;2023-03-16T00:12:24;101887.75;;;21.50;22.44
35011;BME280;21205;37.378;127.098;2023-03-16T00:14:54;101894.16;;;21.42;22.48
35011;BME280;21205;37.378;127.098;2023-03-16T00:17:24;101897.63;;;21.39;22.42
35011;BME280;21205;37.378;127.098;2023-03-16T00:19:56;101895.66;;;21.31;22.37
35011;BME280;21205;37.378;127.098;2023-03-16T00:22:28;101903.19;;;21.22;22.27
35011;BME280;21205;37.378;127.098;2023-03-16T00:24:58;101893.44;;;21.10;22.49
35011;BME280;21205;37.378;127.098;2023-03-16T00:27:28;101889.16;;;21.04;22.51
35011;BME280;21205;37.378;127.098;2023-03-16T00:29:59;101883.72;;;20.99;22.24
35011;BME280;21205;37.378;127.098;2023-03-16T00:32:35;101878.22;;;20.68;22.29
35011;BME280;21205;37.378;127.098;2023-03-16T00:35:05;101873.78;;;20.59;22.88
35011;BME280;21205;37.378;127.098;2023-03-16T00:37:36;101881.66;;;20.57;22.97
35011;BME280;21205;37.378;127.098;2023-03-16T00:40:07;101873.69;;;20.41;22.52
35011;BME280;21205;37.378;127.098;2023-03-16T00:42:38;101869.50;;;20.30;22.75
35011;BME280;21205;37.378;127.098;2023-03-16T00:45:08;101875.00;;;20.44;23.08
35011;BME280;21205;37.378;127.098;2023-03-16T00:47:38;101871.47;;;20.30;22.95
35011;BME280;21205;37.378;127.098;2023-03-16T00:50:08;101876.72;;;20.23;22.47
35011;BME280;21205;37.378;127.098;2023-03-16T00:52:38;101883.22;;;20.40;22.71
35011;BME280;21205;37.378;127.098;2023-03-16T00:55:07;101882.34;;;20.31;22.84
35011;BME280;21205;37.378;127.098;2023-03-16T00:57:37;101886.00;;;20.40;23.13
35011;BME280;21205;37.378;127.098;2023-03-16T01:00:07;101882.84;;;20.33;22.81
35011;BME280;21205;37.378;127.098;2023-03-16T01:02:42;101893.16;;;20.24;22.78
35011;BME280;21205;37.378;127.098;2023-03-16T01:05:13;101884.84;;;20.10;23.01
35011;BME280;21205;37.378;127.098;2023-03-16T01:07:43;101881.31;;;20.18;22.63
35011;BME280;21205;37.378;127.098;2023-03-16T01:10:13;101874.09;;;20.26;22.87
35011;BME280;21205;37.378;127.098;2023-03-16T01:12:43;101873.03;;;20.13;22.93
35011;BME280;21205;37.378;127.098;2023-03-16T01:15:13;101870.94;;;20.19;22.34
35011;BME280;21205;37.378;127.098;2023-03-16T01:17:42;101861.94;;;20.22;22.53
35011;BME280;21205;37.378;127.098;2023-03-16T01:20:12;101869.16;;;20.23;23.00
35011;BME280;21205;37.378;127.098;2023-03-16T01:22:44;101858.84;;;20.32;22.84
35011;BME280;21205;37.378;127.098;2023-03-16T01:25:14;101865.75;;;20.35;22.35
35011;BME280;21205;37.378;127.098;2023-03-16T01:27:44;101853.50;;;20.44;22.12
35011;BME280;21205;37.378;127.098;2023-03-16T01:30:13;101850.69;;;20.44;22.57
35011;BME280;21205;37.378;127.098;2023-03-16T01:32:43;101849.06;;;20.43;22.72
35011;BME280;21205;37.378;127.098;2023-03-16T01:35:13;101855.53;;;20.61;22.85
35011;BME280;21205;37.378;127.098;2023-03-16T01:37:42;101837.59;;;20.54;22.42
35011;BME280;21205;37.378;127.098;2023-03-16T01:40:12;101830.06;;;20.23;22.51
35011;BME280;21205;37.378;127.098;2023-03-16T01:42:58;101844.84;;;20.55;22.37
35011;BME280;21205;37.378;127.098;2023-03-16T01:49:01;101846.47;;;20.56;22.55
35011;BME280;21205;37.378;127.098;2023-03-16T02:02:25;101832.03;;;20.62;23.15
35011;BME280;21205;37.378;127.098;2023-03-16T02:08:08;101806.22;;;20.74;23.10
35011;BME280;21205;37.378;127.098;2023-03-16T02:10:38;101810.50;;;20.80;22.74
35011;BME280;21205;37.378;127.098;2023-03-16T02:13:08;101808.38;;;20.68;23.05
35011;BME280;21205;37.378;127.098;2023-03-16T02:15:39;101792.25;;;20.74;22.56
35011;BME280;21205;37.378;127.098;2023-03-16T02:18:09;101797.06;;;20.99;22.36
35011;BME280;21205;37.378;127.098;2023-03-16T02:23:23;101782.09;;;20.95;22.47
35011;BME280;21205;37.378;127.098;2023-03-16T02:31:07;101775.31;;;20.79;22.78
35011;BME280;21205;37.378;127.098;2023-03-16T02:33:37;101774.31;;;20.58;22.61
35011;BME280;21205;37.378;127.098;2023-03-16T02:36:08;101792.91;;;20.54;23.01
35011;BME280;21205;37.378;127.098;2023-03-16T02:38:39;101788.31;;;20.75;22.54
35011;BME280;21205;37.378;127.098;2023-03-16T02:41:17;101788.47;;;20.78;22.35
35011;BME280;21205;37.378;127.098;2023-03-16T02:44:02;101781.22;;;20.60;22.63
35011;BME280;21205;37.378;127.098;2023-03-16T02:46:38;101787.66;;;20.78;22.54
35011;BME280;21205;37.378;127.098;2023-03-16T02:49:37;101810.22;;;20.81;23.26
35011;BME280;21205;37.378;127.098;2023-03-16T02:52:09;101821.84;;;20.66;23.51
35011;BME280;21205;37.378;127.098;2023-03-16T02:54:39;101810.66;;;20.75;23.79
35011;BME280;21205;37.378;127.098;2023-03-16T02:57:09;101789.50;;;21.00;23.38
35011;BME280;21205;37.378;127.098;2023-03-16T02:59:38;101786.19;;;21.06;22.41
35011;BME280;21205;37.378;127.098;2023-03-16T03:02:09;101807.44;;;21.16;22.61
35011;BME280;21205;37.378;127.098;2023-03-16T03:04:39;101808.72;;;20.93;23.38
35011;BME280;21205;37.378;127.098;2023-03-16T03:07:09;101812.34;;;21.10;22.61
35011;BME280;21205;37.378;127.098;2023-03-16T03:09:40;101801.34;;;21.14;23.10
35011;BME280;21205;37.378;127.098;2023-03-16T03:12:12;101797.41;;;21.15;22.46
35011;BME280;21205;37.378;127.098;2023-03-16T03:14:41;101803.66;;;21.21;22.84
35011;BME280;21205;37.378;127.098;2023-03-16T03:17:12;101794.44;;;21.20;23.34
35011;BME280;21205;37.378;127.098;2023-03-16T03:19:42;101798.34;;;21.10;23.38
35011;BME280;21205;37.378;127.098;2023-03-16T03:22:11;101791.94;;;21.01;24.10
35011;BME280;21205;37.378;127.098;2023-03-16T03:24:46;101784.38;;;21.02;23.26
35011;BME280;21205;37.378;127.098;2023-03-16T03:27:15;101771.91;;;21.17;22.49
35011;BME280;21205;37.378;127.098;2023-03-16T03:29:45;101779.59;;;21.11;22.66
35011;BME280;21205;37.378;127.098;2023-03-16T03:32:15;101772.53;;;20.96;22.95
35011;BME280;21205;37.378;127.098;2023-03-16T03:34:44;101770.59;;;21.31;23.70
35011;BME280;21205;37.378;127.098;2023-03-16T03:37:14;101773.22;;;21.28;22.36
35011;BME280;21205;37.378;127.098;2023-03-16T03:39:43;101777.19;;;21.27;22.54
35011;BME280;21205;37.378;127.098;2023-03-16T03:42:13;101778.97;;;21.31;22.66
35011;BME280;21205;37.378;127.098;2023-03-16T03:44:43;101766.47;;;21.29;22.09
35011;BME280;21205;37.378;127.098;2023-03-16T03:47:12;101766.13;;;21.30;22.71
35011;BME280;21205;37.378;127.098;2023-03-16T03:49:42;101757.06;;;21.42;22.54
35011;BME280;21205;37.378;127.098;2023-03-16T03:52:12;101763.00;;;21.49;22.37
35011;BME280;21205;37.378;127.098;2023-03-16T03:54:42;101763.16;;;21.53;22.16
35011;BME280;21205;37.378;127.098;2023-03-16T03:57:11;101745.19;;;21.45;21.87
35011;BME280;21205;37.378;127.098;2023-03-16T03:59:41;101747.84;;;21.50;21.91
35011;BME280;21205;37.378;127.098;2023-03-16T04:02:12;101742.28;;;21.33;22.80
35011;BME280;21205;37.378;127.098;2023-03-16T04:04:42;101741.31;;;21.29;22.16
35011;BME280;21205;37.378;127.098;2023-03-16T04:07:12;101725.13;;;21.43;21.89
35011;BME280;21205;37.378;127.098;2023-03-16T04:09:42;101723.66;;;21.37;22.31
35011;BME280;21205;37.378;127.098;2023-03-16T04:12:11;101740.13;;;21.38;22.02
35011;BME280;21205;37.378;127.098;2023-03-16T04:14:41;101737.84;;;21.32;22.34
35011;BME280;21205;37.378;127.098;2023-03-16T04:17:11;101731.41;;;21.49;21.83
35011;BME280;21205;37.378;127.098;2023-03-16T04:19:40;101726.78;;;21.44;21.74
35011;BME280;21205;37.378;127.098;2023-03-16T04:22:10;101712.63;;;21.49;21.66
35011;BME280;21205;37.378;127.098;2023-03-16T04:24:41;101715.56;;;21.44;21.97
35011;BME280;21205;37.378;127.098;2023-03-16T04:27:11;101688.94;;;21.38;22.33
35011;BME280;21205;37.378;127.098;2023-03-16T04:29:40;101695.03;;;21.49;21.86
35011;BME280;21205;37.378;127.098;2023-03-16T04:32:10;101697.97;;;21.52;22.59
35011;BME280;21205;37.378;127.098;2023-03-16T04:34:40;101681.88;;;21.32;22.21
35011;BME280;21205;37.378;127.098;2023-03-16T04:37:11;101686.63;;;21.40;22.32
35011;BME280;21205;37.378;127.098;2023-03-16T04:39:41;101686.97;;;21.47;22.07
35011;BME280;21205;37.378;127.098;2023-03-16T04:42:10;101682.81;;;21.53;22.13
35011;BME280;21205;37.378;127.098;2023-03-16T04:44:40;101697.84;;;21.78;22.82
35011;BME280;21205;37.378;127.098;2023-03-16T04:47:13;101682.81;;;21.91;22.05
35011;BME280;21205;37.378;127.098;2023-03-16T04:49:43;101682.75;;;22.00;21.72
35011;BME280;21205;37.378;127.098;2023-03-16T04:52:13;101694.13;;;22.03;21.40
35011;BME280;21205;37.378;127.098;2023-03-16T04:54:43;101678.75;;;22.10;21.45
35011;BME280;21205;37.378;127.098;2023-03-16T04:57:13;101683.88;;;22.08;21.51
35011;BME280;21205;37.378;127.098;2023-03-16T04:59:47;101686.28;;;22.47;20.97
35011;BME280;21205;37.378;127.098;2023-03-16T05:02:16;101683.03;;;22.16;21.41
35011;BME280;21205;37.378;127.098;2023-03-16T05:04:47;101676.47;;;22.03;22.05
35011;BME280;21205;37.378;127.098;2023-03-16T05:07:17;101669.53;;;22.09;21.49
35011;BME280;21205;37.378;127.098;2023-03-16T05:09:47;101666.41;;;22.11;21.68
35011;BME280;21205;37.378;127.098;2023-03-16T05:12:17;101669.19;;;22.11;21.71
35011;BME280;21205;37.378;127.098;2023-03-16T05:14:47;101671.81;;;22.16;21.68
35011;BME280;21205;37.378;127.098;2023-03-16T05:17:16;101666.91;;;22.13;21.57
35011;BME280;21205;37.378;127.098;2023-03-16T05:19:46;101668.47;;;22.22;21.67
35011;BME280;21205;37.378;127.098;2023-03-16T05:24:45;101671.00;;;22.15;21.62
35011;BME280;21205;37.378;127.098;2023-03-16T05:27:15;101666.22;;;22.16;21.54
35011;BME280;21205;37.378;127.098;2023-03-16T05:29:45;101659.47;;;22.17;21.51
35011;BME280;21205;37.378;127.098;2023-03-16T05:32:14;101658.56;;;22.25;21.77
35011;BME280;21205;37.378;127.098;2023-03-16T05:34:44;101656.59;;;22.25;21.51
35011;BME280;21205;37.378;127.098;2023-03-16T05:37:14;101674.56;;;22.24;21.84
35011;BME280;21205;37.378;127.098;2023-03-16T05:39:44;101672.44;;;22.21;21.64
35011;BME280;21205;37.378;127.098;2023-03-16T05:42:14;101673.88;;;22.27;21.75
35011;BME280;21205;37.378;127.098;2023-03-16T05:44:44;101667.13;;;22.28;21.80
35011;BME280;21205;37.378;127.098;2023-03-16T05:47:13;101663.84;;;22.26;21.60
35011;BME280;21205;37.378;127.098;2023-03-16T05:49:43;101671.75;;;22.24;21.66
35011;BME280;21205;37.378;127.098;2023-03-16T05:52:13;101670.94;;;22.24;21.51
35011;BME280;21205;37.378;127.098;2023-03-16T05:54:42;101663.56;;;22.19;21.51
35011;BME280;21205;37.378;127.098;2023-03-16T05:57:12;101654.38;;;22.10;22.06
35011;BME280;21205;37.378;127.098;2023-03-16T05:59:42;101653.25;;;22.02;21.64
35011;BME280;21205;37.378;127.098;2023-03-16T06:02:12;101654.56;;;22.05;22.09
35011;BME280;21205;37.378;127.098;2023-03-16T06:04:41;101666.56;;;22.14;21.67
35011;BME280;21205;37.378;127.098;2023-03-16T06:07:11;101682.00;;;22.20;21.43
35011;BME280;21205;37.378;127.098;2023-03-16T06:09:41;101669.44;;;22.26;21.31
35011;BME280;21205;37.378;127.098;2023-03-16T06:12:10;101675.03;;;22.26;21.53
35011;BME280;21205;37.378;127.098;2023-03-16T06:14:41;101688.72;;;22.28;21.87
35011;BME280;21205;37.378;127.098;2023-03-16T06:17:10;101673.50;;;22.08;22.06
35011;BME280;21205;37.378;127.098;2023-03-16T06:19:40;101687.66;;;22.03;21.94
35011;BME280;21205;37.378;127.098;2023-03-16T06:22:10;101671.53;;;22.09;22.04
35011;BME280;21205;37.378;127.098;2023-03-16T06:24:39;101676.47;;;22.12;22.02
35011;BME280;21205;37.378;127.098;2023-03-16T06:27:09;101679.94;;;22.09;22.24
35011;BME280;21205;37.378;127.098;2023-03-16T07:18:18;101668.94;;;21.95;22.78
35011;BME280;21205;37.378;127.098;2023-03-16T07:20:48;101667.56;;;21.71;23.63
35011;BME280;21205;37.378;127.098;2023-03-16T07:23:17;101661.50;;;21.69;23.63
35011;BME280;21205;37.378;127.098;2023-03-16T07:25:47;101648.28;;;21.79;23.44
35011;BME280;21205;37.378;127.098;2023-03-16T07:28:20;101654.16;;;21.56;23.61
35011;BME280;21205;37.378;127.098;2023-03-16T07:30:51;101642.34;;;21.51;23.95
35011;BME280;21205;37.378;127.098;2023-03-16T07:33:33;101649.19;;;21.62;23.56
35011;BME280;21205;37.378;127.098;2023-03-16T07:36:04;101647.50;;;21.69;23.08
35011;BME280;21205;37.378;127.098;2023-03-16T07:38:33;101652.47;;;21.64;22.89
35011;BME280;21205;37.378;127.098;2023-03-16T07:41:04;101655.94;;;21.61;23.25
35011;BME280;21205;37.378;127.098;2023-03-16T07:43:34;101646.31;;;21.41;24.43
35011;BME280;21205;37.378;127.098;2023-03-16T07:46:04;101655.75;;;21.28;23.70
35011;BME280;21205;37.378;127.098;2023-03-16T07:48:34;101636.94;;;21.37;22.86
35011;BME280;21205;37.378;127.098;2023-03-16T07:51:04;101637.63;;;21.34;24.20
35011;BME280;21205;37.378;127.098;2023-03-16T07:53:33;101635.81;;;21.29;22.88
35011;BME280;21205;37.378;127.098;2023-03-16T07:56:03;101630.09;;;21.08;23.19
35011;BME280;21205;37.378;127.098;2023-03-16T07:58:33;101624.00;;;21.15;23.67
35011;BME280;21205;37.378;127.098;2023-03-16T08:01:03;101622.81;;;21.33;24.30
35011;BME280;21205;37.378;127.098;2023-03-16T08:03:32;101631.78;;;21.56;23.66
35011;BME280;21205;37.378;127.098;2023-03-16T08:06:02;101629.25;;;21.63;23.46
35011;BME280;21205;37.378;127.098;2023-03-16T08:08:33;101624.63;;;21.67;22.84
35011;BME280;21205;37.378;127.098;2023-03-16T08:11:03;101627.22;;;21.72;22.85
35011;BME280;21205;37.378;127.098;2023-03-16T08:13:32;101622.59;;;21.77;22.57
35011;BME280;21205;37.378;127.098;2023-03-16T08:16:03;101622.94;;;21.75;22.80
35011;BME280;21205;37.378;127.098;2023-03-16T08:18:33;101621.16;;;21.70;22.52
35011;BME280;21205;37.378;127.098;2023-03-16T08:21:03;101624.97;;;21.66;22.82
35011;BME280;21205;37.378;127.098;2023-03-16T08:23:32;101617.94;;;21.60;22.75
35011;BME280;21205;37.378;127.098;2023-03-16T08:26:02;101616.97;;;21.56;22.43
35011;BME280;21205;37.378;127.098;2023-03-16T08:28:36;101626.53;;;21.46;23.10
35011;BME280;21205;37.378;127.098;2023-03-16T08:31:06;101629.19;;;21.42;22.58
35011;BME280;21205;37.378;127.098;2023-03-16T08:33:37;101622.81;;;21.33;23.00
35011;BME280;21205;37.378;127.098;2023-03-16T08:36:09;101621.22;;;21.24;23.29
35011;BME280;21205;37.378;127.098;2023-03-16T08:38:40;101628.94;;;21.18;23.21
35011;BME280;21205;37.378;127.098;2023-03-16T08:41:11;101625.47;;;21.12;23.20
35011;BME280;21205;37.378;127.098;2023-03-16T08:43:42;101619.09;;;21.03;23.01
35011;BME280;21205;37.378;127.098;2023-03-16T08:46:12;101614.00;;;20.97;22.87
35011;BME280;21205;37.378;127.098;2023-03-16T08:48:42;101609.28;;;20.89;23.07
35011;BME280;21205;37.378;127.098;2023-03-16T08:51:12;101603.03;;;20.83;23.53
35011;BME280;21205;37.378;127.098;2023-03-16T08:53:41;101607.94;;;20.77;22.90
35011;BME280;21205;37.378;127.098;2023-03-16T08:56:13;101605.66;;;20.71;22.96
35011;BME280;21205;37.378;127.098;2023-03-16T08:58:42;101607.97;;;20.69;23.50
35011;BME280;21205;37.378;127.098;2023-03-16T09:01:15;101603.22;;;20.61;23.10
35011;BME280;21205;37.378;127.098;2023-03-16T09:03:46;101611.94;;;20.59;23.10
35011;BME280;21205;37.378;127.098;2023-03-16T09:06:16;101611.28;;;20.54;23.67
35011;BME280;21205;37.378;127.098;2023-03-16T09:08:46;101613.41;;;20.48;23.59
35011;BME280;21205;37.378;127.098;2023-03-16T09:11:19;101618.84;;;20.44;23.74
35011;BME280;21205;37.378;127.098;2023-03-16T09:13:50;101627.88;;;20.41;23.43
35011;BME280;21205;37.378;127.098;2023-03-16T09:16:20;101631.28;;;20.38;23.61
35011;BME280;21205;37.378;127.098;2023-03-16T09:18:53;101625.06;;;20.41;23.73
35011;BME280;21205;37.378;127.098;2023-03-16T09:21:23;101627.50;;;20.34;24.02
35011;BME280;21205;37.378;127.098;2023-03-16T09:23:53;101624.72;;;20.34;23.36
35011;BME280;21205;37.378;127.098;2023-03-16T09:26:24;101630.47;;;20.29;24.00
35011;BME280;21205;37.378;127.098;2023-03-16T09:28:53;101633.94;;;20.26;23.77
35011;BME280;21205;37.378;127.098;2023-03-16T09:31:23;101649.53;;;20.18;24.24
35011;BME280;21205;37.378;127.098;2023-03-16T09:33:53;101648.19;;;20.16;24.16
35011;BME280;21205;37.378;127.098;2023-03-16T09:36:23;101653.09;;;20.10;24.26
35011;BME280;21205;37.378;127.098;2023-03-16T09:38:53;101655.22;;;20.05;23.64
35011;BME280;21205;37.378;127.098;2023-03-16T09:47:01;101656.22;;;20.00;23.89
35011;BME280;21205;37.378;127.098;2023-03-16T09:49:37;101664.09;;;19.98;23.93
35011;BME280;21205;37.378;127.098;2023-03-16T09:58:00;101669.34;;;19.91;24.21
35011;BME280;21205;37.378;127.098;2023-03-16T10:00:46;101657.34;;;19.91;23.88
35011;BME280;21205;37.378;127.098;2023-03-16T10:06:04;101651.41;;;19.83;23.69
35011;BME280;21205;37.378;127.098;2023-03-16T10:08:39;101654.84;;;19.80;23.87
35011;BME280;21205;37.378;127.098;2023-03-16T10:11:27;101655.47;;;19.77;24.06
35011;BME280;21205;37.378;127.098;2023-03-16T10:14:40;101658.44;;;19.72;23.72
35011;BME280;21205;37.378;127.098;2023-03-16T10:20:00;101665.81;;;19.68;23.90
35011;BME280;21205;37.378;127.098;2023-03-16T10:22:36;101678.59;;;19.69;23.70
35011;BME280;21205;37.378;127.098;2023-03-16T10:27:51;101679.91;;;19.63;24.42
35011;BME280;21205;37.378;127.098;2023-03-16T10:30:35;101671.22;;;19.65;23.91
35011;BME280;21205;37.378;127.098;2023-03-16T10:33:22;101669.22;;;19.56;24.40
35011;BME280;21205;37.378;127.098;2023-03-16T10:36:31;101670.03;;;19.57;24.32
35011;BME280;21205;37.378;127.098;2023-03-16T10:39:05;101671.69;;;19.58;24.24
35011;BME280;21205;37.378;127.098;2023-03-16T10:41:37;101660.03;;;19.56;24.28
35011;BME280;21205;37.378;127.098;2023-03-16T10:44:14;101659.28;;;19.50;24.60
35011;BME280;21205;37.378;127.098;2023-03-16T10:46:48;101670.25;;;19.47;24.48
35011;BME280;21205;37.378;127.098;2023-03-16T10:49:41;101672.72;;;19.48;24.47
35011;BME280;21205;37.378;127.098;2023-03-16T10:57:23;101681.41;;;19.47;24.59
35011;BME280;21205;37.378;127.098;2023-03-16T10:59:58;101678.94;;;19.45;24.73
35011;BME280;21205;37.378;127.098;2023-03-16T11:02:32;101680.41;;;19.43;23.96
35011;BME280;21205;37.378;127.098;2023-03-16T11:05:35;101669.91;;;19.40;24.60
35011;BME280;21205;37.378;127.098;2023-03-16T11:08:13;101666.63;;;19.38;24.52
35011;BME280;21205;37.378;127.098;2023-03-16T11:10:46;101666.44;;;19.34;24.31
35011;BME280;21205;37.378;127.098;2023-03-16T11:13:29;101670.38;;;19.33;23.95
35011;BME280;21205;37.378;127.098;2023-03-16T11:22:07;101672.16;;;19.29;24.84
35011;BME280;21205;37.378;127.098;2023-03-16T11:32:48;101671.16;;;19.25;24.19
35011;BME280;21205;37.378;127.098;2023-03-16T11:36:05;101670.66;;;19.23;24.94
35011;BME280;21205;37.378;127.098;2023-03-16T11:47:05;101670.25;;;19.16;25.07
35011;BME280;21205;37.378;127.098;2023-03-16T12:01:57;101664.31;;;19.09;24.91
35011;BME280;21205;37.378;127.098;2023-03-16T12:10:31;101664.63;;;19.07;24.65
35011;BME280;21205;37.378;127.098;2023-03-16T12:19:00;101668.69;;;19.01;24.56
35011;BME280;21205;37.378;127.098;2023-03-16T12:21:33;101662.81;;;19.03;25.14
35011;BME280;21205;37.378;127.098;2023-03-16T12:24:12;101668.06;;;19.04;24.67
35011;BME280;21205;37.378;127.098;2023-03-16T12:26:44;101664.78;;;19.02;25.15
35011;BME280;21205;37.378;127.098;2023-03-16T12:34:35;101671.34;;;19.06;24.55
35011;BME280;21205;37.378;127.098;2023-03-16T12:43:26;101671.34;;;19.06;24.98
35011;BME280;21205;37.378;127.098;2023-03-16T12:48:54;101683.66;;;19.05;25.13
35011;BME280;21205;37.378;127.098;2023-03-16T12:51:39;101679.53;;;19.03;25.08
35011;BME280;21205;37.378;127.098;2023-03-16T12:54:23;101693.16;;;19.04;24.78
35011;BME280;21205;37.378;127.098;2023-03-16T12:57:07;101695.94;;;19.04;24.84
35011;BME280;21205;37.378;127.098;2023-03-16T12:59:43;101695.13;;;19.04;24.70
35011;BME280;21205;37.378;127.098;2023-03-16T13:02:25;101690.38;;;19.04;25.30
35011;BME280;21205;37.378;127.098;2023-03-16T13:07:46;101695.44;;;19.02;24.79
35011;BME280;21205;37.378;127.098;2023-03-16T13:10:17;101702.16;;;19.01;25.07
35011;BME280;21205;37.378;127.098;2023-03-16T13:12:48;101700.81;;;18.99;24.54
35011;BME280;21205;37.378;127.098;2023-03-16T13:18:03;101710.00;;;18.99;24.84
35011;BME280;21205;37.378;127.098;2023-03-16T13:20:56;101713.13;;;18.98;25.31
35011;BME280;21205;37.378;127.098;2023-03-16T13:23:26;101708.19;;;18.94;25.26
35011;BME280;21205;37.378;127.098;2023-03-16T13:26:04;101711.28;;;18.93;25.37
35011;BME280;21205;37.378;127.098;2023-03-16T13:28:38;101720.78;;;18.92;25.11
35011;BME280;21205;37.378;127.098;2023-03-16T13:31:39;101722.25;;;18.89;25.74
35011;BME280;21205;37.378;127.098;2023-03-16T13:34:17;101716.97;;;18.88;25.61
35011;BME280;21205;37.378;127.098;2023-03-16T13:36:52;101715.63;;;18.85;25.31
35011;BME280;21205;37.378;127.098;2023-03-16T13:39:24;101722.66;;;18.83;25.74
35011;BME280;21205;37.378;127.098;2023-03-16T13:44:38;101726.56;;;18.82;25.32
35011;BME280;21205;37.378;127.098;2023-03-16T13:47:15;101724.94;;;18.81;25.30
35011;BME280;21205;37.378;127.098;2023-03-16T13:49:49;101724.44;;;18.79;25.16
35011;BME280;21205;37.378;127.098;2023-03-16T13:52:39;101727.84;;;18.76;25.31
35011;BME280;21205;37.378;127.098;2023-03-16T13:55:16;101726.19;;;18.75;25.07
35011;BME280;21205;37.378;127.098;2023-03-16T13:57:47;101719.28;;;18.72;25.70
35011;BME280;21205;37.378;127.098;2023-03-16T14:00:23;101708.47;;;18.71;25.55
35011;BME280;21205;37.378;127.098;2023-03-16T14:02:56;101708.91;;;18.64;26.05
35011;BME280;21205;37.378;127.098;2023-03-16T14:05:29;101713.03;;;18.67;25.51
35011;BME280;21205;37.378;127.098;2023-03-16T14:07:59;101713.84;;;18.67;25.39
35011;BME280;21205;37.378;127.098;2023-03-16T14:10:39;101708.28;;;18.67;25.24
35011;BME280;21205;37.378;127.098;2023-03-16T14:13:09;101712.19;;;18.66;25.81
35011;BME280;21205;37.378;127.098;2023-03-16T14:15:55;101705.28;;;18.63;25.84
35011;BME280;21205;37.378;127.098;2023-03-16T14:18:35;101702.50;;;18.63;25.95
35011;BME280;21205;37.378;127.098;2023-03-16T14:21:25;101703.13;;;18.60;25.97
35011;BME280;21205;37.378;127.098;2023-03-16T14:24:04;101701.47;;;18.59;25.82
35011;BME280;21205;37.378;127.098;2023-03-16T14:26:45;101695.91;;;18.59;25.35
35011;BME280;21205;37.378;127.098;2023-03-16T14:31:52;101682.28;;;18.58;25.49
35011;BME280;21205;37.378;127.098;2023-03-16T14:34:29;101685.69;;;18.55;25.33
35011;BME280;21205;37.378;127.098;2023-03-16T14:37:12;101689.31;;;18.55;25.69
35011;BME280;21205;37.378;127.098;2023-03-16T14:39:42;101696.53;;;18.56;25.87
35011;BME280;21205;37.378;127.098;2023-03-16T14:42:27;101696.84;;;18.55;25.50
35011;BME280;21205;37.378;127.098;2023-03-16T14:45:02;101696.03;;;18.54;25.55
35011;BME280;21205;37.378;127.098;2023-03-16T14:47:41;101689.91;;;18.52;25.82
35011;BME280;21205;37.378;127.098;2023-03-16T14:50:21;101691.06;;;18.51;25.83
35011;BME280;21205;37.378;127.098;2023-03-16T14:52:53;101681.06;;;18.50;26.05
35011;BME280;21205;37.378;127.098;2023-03-16T14:55:24;101683.84;;;18.50;26.05
35011;BME280;21205;37.378;127.098;2023-03-16T14:57:55;101681.38;;;18.49;26.02
35011;BME280;21205;37.378;127.098;2023-03-16T15:00:24;101692.31;;;18.45;26.11
35011;BME280;21205;37.378;127.098;2023-03-16T15:03:08;101695.59;;;18.47;26.11
35011;BME280;21205;37.378;127.098;2023-03-16T15:05:46;101693.13;;;18.46;25.81
35011;BME280;21205;37.378;127.098;2023-03-16T15:08:29;101689.53;;;18.45;25.61
35011;BME280;21205;37.378;127.098;2023-03-16T15:11:00;101687.06;;;18.44;25.99
35011;BME280;21205;37.378;127.098;2023-03-16T15:13:33;101688.19;;;18.43;25.86
35011;BME280;21205;37.378;127.098;2023-03-16T15:16:13;101689.34;;;18.42;25.77
35011;BME280;21205;37.378;127.098;2023-03-16T15:18:42;101692.44;;;18.40;25.44
35011;BME280;21205;37.378;127.098;2023-03-16T15:21:17;101682.94;;;18.41;25.71
35011;BME280;21205;37.378;127.098;2023-03-16T15:23:48;101675.22;;;18.38;25.79
35011;BME280;21205;37.378;127.098;2023-03-16T15:26:22;101675.22;;;18.38;25.71
35011;BME280;21205;37.378;127.098;2023-03-16T15:28:56;101678.31;;;18.37;25.56
35011;BME280;21205;37.378;127.098;2023-03-16T15:31:25;101670.78;;;18.37;25.84
35011;BME280;21205;37.378;127.098;2023-03-16T15:33:55;101677.19;;;18.38;25.82
35011;BME280;21205;37.378;127.098;2023-03-16T15:36:25;101685.03;;;18.35;25.41
35011;BME280;21205;37.378;127.098;2023-03-16T15:38:54;101680.28;;;18.36;25.63
35011;BME280;21205;37.378;127.098;2023-03-16T15:41:24;101673.88;;;18.35;25.64
35011;BME280;21205;37.378;127.098;2023-03-16T15:44:01;101680.59;;;18.34;25.33
35011;BME280;21205;37.378;127.098;2023-03-16T15:46:31;101673.38;;;18.33;25.77
35011;BME280;21205;37.378;127.098;2023-03-16T15:49:01;101678.13;;;18.33;25.79
35011;BME280;21205;37.378;127.098;2023-03-16T15:51:31;101671.72;;;18.32;25.82
35011;BME280;21205;37.378;127.098;2023-03-16T15:54:03;101674.00;;;18.30;25.71